createdAt,value
2022-12-26T00:00:37.610Z,93.82
2022-12-26T00:01:37.466Z,93.35
2022-12-26T00:02:37.490Z,93.55
2022-12-26T00:03:37.552Z,93.25
2022-12-26T00:04:50.078Z,92.94
2022-12-26T00:05:37.309Z,93.21
2022-12-26T00:06:37.276Z,93.62
2022-12-26T00:07:37.220Z,93.51
2022-12-26T00:08:37.181Z,93.35
2022-12-26T00:09:37.140Z,93.66
2022-12-26T00:10:37.098Z,93.76
2022-12-26T00:11:37.068Z,93.66
2022-12-26T00:12:37.030Z,92.84
2022-12-26T00:13:40.803Z,93.45
2022-12-26T00:14:36.939Z,93.86
2022-12-26T00:15:36.896Z,93.86
2022-12-26T00:16:36.946Z,93.86
2022-12-26T00:17:36.816Z,93.96
2022-12-26T00:18:36.784Z,93.45
2022-12-26T00:19:36.743Z,93.55
2022-12-26T00:20:36.707Z,93.55
2022-12-26T00:21:36.664Z,93.51
2022-12-26T00:22:36.612Z,93.55
2022-12-26T00:23:36.581Z,93.55
2022-12-26T00:24:36.534Z,93.45
2022-12-26T00:25:36.509Z,93.55
2022-12-26T00:26:36.449Z,93.55
2022-12-26T00:27:36.408Z,93.05
2022-12-26T00:28:36.371Z,93.66
2022-12-26T00:29:36.344Z,93.55
2022-12-26T00:30:36.287Z,93.45
2022-12-26T00:31:36.290Z,93.66
2022-12-26T00:32:36.213Z,93.45
2022-12-26T00:33:36.174Z,93.45
2022-12-26T00:34:36.150Z,93.66
2022-12-26T00:35:36.094Z,93.76
2022-12-26T00:36:36.058Z,93.76
2022-12-26T00:37:36.001Z,93.45
2022-12-26T00:38:35.965Z,93.66
2022-12-26T00:39:35.920Z,93.45
2022-12-26T00:40:35.916Z,93.71
2022-12-26T00:41:35.856Z,93.62
2022-12-26T00:42:35.837Z,93.92
2022-12-26T00:43:35.778Z,93.66
2022-12-26T00:44:35.729Z,93.66
2022-12-26T00:45:35.683Z,93.66
2022-12-26T00:46:35.680Z,93.35
2022-12-26T00:47:35.616Z,93.66
2022-12-26T00:48:35.572Z,93.25
2022-12-26T00:50:14.912Z,93.86
2022-12-26T00:50:35.520Z,93.82
2022-12-26T00:51:35.439Z,93.45
2022-12-26T00:52:35.413Z,93.55
2022-12-26T00:53:35.377Z,93.55
2022-12-26T00:54:35.327Z,93.25
2022-12-26T00:55:35.274Z,93.55
2022-12-26T00:56:35.241Z,93.35
2022-12-26T00:57:35.207Z,93.66
2022-12-26T00:58:35.153Z,93.45
2022-12-26T00:59:35.111Z,93.66
2022-12-26T01:00:35.140Z,93.76
2022-12-26T01:01:35.195Z,93.55
2022-12-26T01:02:35.035Z,93.66
2022-12-26T01:03:34.948Z,93.45
2022-12-26T01:04:34.926Z,93.45
2022-12-26T01:05:34.871Z,93.55
2022-12-26T01:06:34.841Z,92.94
2022-12-26T01:07:34.789Z,93.25
2022-12-26T01:08:34.752Z,93.05
2022-12-26T01:09:34.708Z,92.94
2022-12-26T01:10:34.670Z,92.94
2022-12-26T01:11:34.626Z,92.84
2022-12-26T01:12:34.609Z,93.25
2022-12-26T01:13:34.547Z,92.43
2022-12-26T01:14:34.518Z,92.64
2022-12-26T01:15:34.469Z,91.82
2022-12-26T01:16:34.556Z,92.84
2022-12-26T01:17:34.397Z,92.74
2022-12-26T01:18:34.363Z,92.64
2022-12-26T01:19:34.305Z,92.69
2022-12-26T01:20:34.264Z,92.29
2022-12-26T01:21:34.224Z,92.84
2022-12-26T01:22:34.186Z,92.64
2022-12-26T01:23:34.151Z,92.94
2022-12-26T01:24:34.115Z,92.54
2022-12-26T01:25:34.060Z,92.19
2022-12-26T01:26:34.023Z,92.94
2022-12-26T01:27:33.974Z,92.23
2022-12-26T01:28:33.939Z,92.23
2022-12-26T01:29:33.893Z,92.94
2022-12-26T01:30:33.869Z,92.59
2022-12-26T01:31:33.856Z,92.33
2022-12-26T01:32:33.777Z,92.64
2022-12-26T01:33:33.736Z,92.43
2022-12-26T01:34:33.703Z,92.54
2022-12-26T01:35:33.650Z,92.74
2022-12-26T01:36:33.631Z,92.54
2022-12-26T01:37:33.578Z,92.33
2022-12-26T01:38:33.535Z,92.54
2022-12-26T01:39:33.491Z,92.43
2022-12-26T01:40:33.450Z,92.33
2022-12-26T01:41:33.440Z,92.84
2022-12-26T01:42:33.370Z,92.13
2022-12-26T01:43:33.323Z,92.33
2022-12-26T01:44:33.292Z,92.84
2022-12-26T01:45:33.275Z,92.94
2022-12-26T01:46:33.223Z,92.02
2022-12-26T01:47:33.179Z,92.54
2022-12-26T01:48:33.123Z,92.84
2022-12-26T01:49:33.083Z,92.94
2022-12-26T01:50:33.047Z,92.02
2022-12-26T01:51:33.010Z,92.94
2022-12-26T01:52:32.972Z,92.84
2022-12-26T01:53:32.939Z,92.02
2022-12-26T01:54:37.338Z,92.74
2022-12-26T01:55:32.849Z,92.84
2022-12-26T01:56:32.802Z,91.72
2022-12-26T01:57:32.772Z,92.84
2022-12-26T01:58:32.733Z,91.86
2022-12-26T01:59:32.685Z,92.74
2022-12-26T02:00:32.639Z,92.23
2022-12-26T02:01:32.690Z,92.64
2022-12-26T02:02:32.663Z,92.64
2022-12-26T02:03:32.526Z,92.84
2022-12-26T02:04:32.483Z,91.92
2022-12-26T02:05:32.435Z,92.99
2022-12-26T02:06:32.394Z,92.54
2022-12-26T02:07:32.352Z,92.43
2022-12-26T02:08:32.314Z,93.19
2022-12-26T02:09:32.286Z,92.43
2022-12-26T02:10:32.237Z,92.43
2022-12-26T02:11:32.193Z,93.15
2022-12-26T02:12:35.368Z,93.05
2022-12-26T02:13:32.129Z,92.74
2022-12-26T02:14:32.072Z,93.55
2022-12-26T02:15:32.028Z,92.74
2022-12-26T02:16:32.061Z,93.05
2022-12-26T02:17:31.958Z,92.58
2022-12-26T02:18:31.921Z,92.54
2022-12-26T02:19:31.873Z,92.78
2022-12-26T02:20:31.830Z,92.54
2022-12-26T02:21:31.797Z,92.64
2022-12-26T02:22:31.750Z,92.64
2022-12-26T02:23:31.714Z,92.43
2022-12-26T02:24:31.669Z,92.88
2022-12-26T02:25:31.633Z,93.05
2022-12-26T02:26:31.583Z,92.74
2022-12-26T02:27:31.543Z,93.19
2022-12-26T02:28:31.509Z,92.43
2022-12-26T02:29:31.471Z,93.35
2022-12-26T02:30:31.428Z,93.05
2022-12-26T02:31:31.434Z,92.64
2022-12-26T02:32:31.339Z,93.25
2022-12-26T02:33:31.303Z,92.94
2022-12-26T02:34:31.280Z,92.68
2022-12-26T02:35:31.216Z,93.25
2022-12-26T02:36:31.174Z,93.25
2022-12-26T02:37:31.136Z,93.25
2022-12-26T02:38:31.093Z,92.58
2022-12-26T02:39:43.836Z,92.78
2022-12-26T02:40:31.033Z,93.29
2022-12-26T02:41:30.977Z,93.40
2022-12-26T02:42:30.942Z,93.09
2022-12-26T02:43:30.896Z,92.88
2022-12-26T02:44:30.850Z,93.35
2022-12-26T02:45:30.825Z,93.25
2022-12-26T02:46:30.924Z,92.94
2022-12-26T02:47:30.733Z,92.94
2022-12-26T02:48:30.689Z,92.74
2022-12-26T02:49:30.671Z,93.15
2022-12-26T02:50:30.606Z,92.99
2022-12-26T02:51:30.573Z,93.15
2022-12-26T02:52:30.542Z,93.29
2022-12-26T02:53:30.485Z,92.94
2022-12-26T02:54:30.451Z,93.09
2022-12-26T02:55:30.412Z,93.05
2022-12-26T02:56:30.362Z,93.09
2022-12-26T02:57:30.327Z,93.15
2022-12-26T02:58:30.293Z,93.15
2022-12-26T02:59:54.121Z,92.99
2022-12-26T03:00:30.197Z,93.29
2022-12-26T03:01:30.327Z,93.09
2022-12-26T03:02:30.282Z,93.19
2022-12-26T03:03:30.178Z,92.94
2022-12-26T03:04:30.046Z,93.55
2022-12-26T03:05:29.997Z,92.94
2022-12-26T03:06:30.005Z,93.09
2022-12-26T03:07:29.940Z,93.29
2022-12-26T03:08:29.974Z,93.15
2022-12-26T03:09:29.857Z,93.09
2022-12-26T03:10:29.805Z,93.09
2022-12-26T03:11:29.754Z,93.45
2022-12-26T03:12:29.712Z,93.50
2022-12-26T03:13:29.677Z,93.50
2022-12-26T03:14:29.648Z,93.19
2022-12-26T03:15:29.590Z,93.15
2022-12-26T03:16:29.590Z,93.09
2022-12-26T03:17:29.515Z,93.09
2022-12-26T03:18:57.847Z,93.09
2022-12-26T03:19:29.428Z,93.09
2022-12-26T03:20:29.415Z,93.40
2022-12-26T03:21:29.363Z,92.94
2022-12-26T03:22:29.304Z,93.09
2022-12-26T03:23:29.270Z,92.99
2022-12-26T03:24:29.225Z,93.19
2022-12-26T03:25:29.192Z,93.25
2022-12-26T03:26:29.153Z,93.19
2022-12-26T03:27:29.101Z,92.88
2022-12-26T03:28:29.079Z,93.40
2022-12-26T03:29:29.038Z,93.25
2022-12-26T03:30:29.054Z,92.88
2022-12-26T03:31:28.940Z,92.99
2022-12-26T03:32:28.909Z,93.09
2022-12-26T03:33:28.860Z,92.99
2022-12-26T03:34:28.816Z,92.78
2022-12-26T03:35:28.777Z,92.99
2022-12-26T03:36:28.734Z,92.99
2022-12-26T03:37:48.869Z,92.84
2022-12-26T03:38:28.650Z,92.84
2022-12-26T03:39:28.613Z,92.84
2022-12-26T03:40:28.571Z,93.09
2022-12-26T03:41:28.535Z,92.84
2022-12-26T03:42:28.490Z,93.09
2022-12-26T03:43:28.468Z,92.99
2022-12-26T03:44:28.407Z,93.05
2022-12-26T03:45:28.369Z,92.99
2022-12-26T03:46:28.380Z,92.88
2022-12-26T03:47:28.289Z,93.60
2022-12-26T03:48:28.264Z,93.09
2022-12-26T03:49:28.351Z,93.09
2022-12-26T03:50:28.167Z,92.99
2022-12-26T03:51:28.125Z,93.50
2022-12-26T03:52:28.081Z,92.94
2022-12-26T03:53:28.042Z,93.09
2022-12-26T03:54:27.998Z,93.09
2022-12-26T03:55:27.980Z,92.99
2022-12-26T03:56:27.918Z,92.88
2022-12-26T03:57:27.883Z,92.78
2022-12-26T03:58:27.835Z,93.19
2022-12-26T03:59:27.813Z,92.99
2022-12-26T04:00:27.768Z,92.78
2022-12-26T04:01:27.840Z,93.40
2022-12-26T04:02:27.895Z,92.78
2022-12-26T04:03:27.719Z,93.09
2022-12-26T04:04:27.593Z,93.13
2022-12-26T04:05:27.561Z,92.58
2022-12-26T04:06:27.527Z,92.99
2022-12-26T04:07:27.490Z,92.83
2022-12-26T04:08:27.433Z,92.58
2022-12-26T04:09:27.419Z,93.19
2022-12-26T04:10:27.347Z,92.72
2022-12-26T04:11:27.313Z,92.52
2022-12-26T04:12:27.279Z,92.93
2022-12-26T04:13:27.228Z,92.83
2022-12-26T04:14:27.185Z,92.83
2022-12-26T04:15:27.174Z,92.15
2022-12-26T04:16:27.103Z,93.13
2022-12-26T04:17:27.079Z,92.62
2022-12-26T04:18:27.029Z,92.36
2022-12-26T04:19:26.992Z,92.32
2022-12-26T04:20:26.940Z,92.72
2022-12-26T04:21:26.898Z,92.83
2022-12-26T04:22:26.859Z,92.93
2022-12-26T04:23:26.915Z,92.42
2022-12-26T04:24:26.776Z,92.36
2022-12-26T04:25:49.576Z,92.42
2022-12-26T04:26:26.697Z,92.62
2022-12-26T04:27:26.655Z,92.52
2022-12-26T04:28:26.619Z,92.36
2022-12-26T04:29:26.573Z,92.72
2022-12-26T04:30:26.544Z,92.46
2022-12-26T04:31:26.528Z,92.46
2022-12-26T04:32:26.449Z,92.56
2022-12-26T04:33:26.415Z,92.15
2022-12-26T04:34:26.367Z,92.46
2022-12-26T04:35:26.349Z,92.87
2022-12-26T04:36:26.288Z,92.87
2022-12-26T04:37:26.247Z,92.83
2022-12-26T04:38:26.244Z,92.66
2022-12-26T04:39:26.169Z,92.46
2022-12-26T04:40:26.117Z,92.87
2022-12-26T04:41:26.097Z,92.87
2022-12-26T04:42:26.067Z,92.97
2022-12-26T04:43:48.962Z,93.07
2022-12-26T04:44:25.958Z,92.56
2022-12-26T04:45:25.931Z,92.25
2022-12-26T04:46:26.006Z,93.28
2022-12-26T04:47:25.851Z,92.97
2022-12-26T04:48:25.792Z,93.38
2022-12-26T04:49:25.754Z,92.66
2022-12-26T04:50:25.708Z,92.56
2022-12-26T04:51:25.679Z,93.01
2022-12-26T04:52:25.634Z,92.36
2022-12-26T04:53:25.606Z,92.19
2022-12-26T04:54:25.579Z,92.56
2022-12-26T04:55:25.523Z,92.66
2022-12-26T04:56:25.465Z,92.91
2022-12-26T04:57:25.428Z,92.66
2022-12-26T04:58:25.382Z,92.77
2022-12-26T04:59:25.356Z,92.91
2022-12-26T05:00:25.298Z,92.36
2022-12-26T05:01:25.444Z,92.66
2022-12-26T05:02:25.549Z,92.46
2022-12-26T05:03:25.213Z,92.91
2022-12-26T05:04:25.143Z,92.87
2022-12-26T05:05:25.116Z,92.81
2022-12-26T05:06:25.060Z,92.56
2022-12-26T05:07:25.046Z,92.91
2022-12-26T05:08:24.975Z,92.81
2022-12-26T05:09:24.937Z,92.77
2022-12-26T05:10:24.896Z,92.71
2022-12-26T05:11:24.858Z,92.60
2022-12-26T05:12:33.988Z,92.46
2022-12-26T05:13:24.775Z,92.81
2022-12-26T05:14:24.732Z,92.60
2022-12-26T05:15:24.689Z,92.71
2022-12-26T05:16:24.665Z,92.71
2022-12-26T05:17:24.611Z,92.81
2022-12-26T05:18:24.581Z,93.01
2022-12-26T05:19:24.544Z,92.71
2022-12-26T05:20:24.484Z,92.71
2022-12-26T05:21:24.445Z,92.50
2022-12-26T05:22:24.406Z,92.50
2022-12-26T05:23:24.378Z,92.50
2022-12-26T05:24:24.333Z,92.60
2022-12-26T05:25:24.293Z,93.01
2022-12-26T05:26:24.242Z,93.01
2022-12-26T05:27:24.202Z,92.60
2022-12-26T05:28:24.163Z,92.91
2022-12-26T05:29:24.140Z,92.50
2022-12-26T05:30:24.076Z,92.85
2022-12-26T05:31:26.221Z,92.71
2022-12-26T05:32:23.994Z,92.71
2022-12-26T05:33:23.958Z,92.65
2022-12-26T05:34:23.914Z,92.91
2022-12-26T05:35:23.888Z,92.40
2022-12-26T05:36:23.830Z,92.19
2022-12-26T05:37:23.797Z,93.12
2022-12-26T05:38:23.753Z,92.24
2022-12-26T05:39:23.716Z,92.91
2022-12-26T05:40:23.666Z,92.91
2022-12-26T05:41:23.638Z,93.01
2022-12-26T05:42:23.585Z,93.06
2022-12-26T05:43:23.546Z,93.12
2022-12-26T05:44:23.525Z,93.01
2022-12-26T05:45:23.465Z,92.85
2022-12-26T05:46:23.528Z,93.22
2022-12-26T05:47:23.385Z,93.12
2022-12-26T05:48:23.358Z,92.44
2022-12-26T05:49:23.300Z,92.71
2022-12-26T05:50:23.274Z,92.96
2022-12-26T05:51:23.227Z,93.16
2022-12-26T05:52:23.176Z,93.01
2022-12-26T05:53:23.145Z,93.01
2022-12-26T05:54:23.092Z,92.91
2022-12-26T05:55:23.057Z,93.12
2022-12-26T05:56:23.031Z,92.91
2022-12-26T05:57:22.986Z,92.85
2022-12-26T05:58:22.946Z,93.01
2022-12-26T05:59:22.891Z,93.22
2022-12-26T06:00:22.852Z,92.96
2022-12-26T06:01:22.869Z,93.16
2022-12-26T06:02:22.895Z,92.81
2022-12-26T06:03:22.752Z,92.71
2022-12-26T06:04:22.695Z,92.85
2022-12-26T06:05:22.644Z,92.71
2022-12-26T06:06:22.603Z,93.16
2022-12-26T06:07:22.565Z,92.03
2022-12-26T06:08:22.522Z,92.81
2022-12-26T06:09:22.488Z,92.85
2022-12-26T06:10:22.451Z,92.75
2022-12-26T06:11:22.418Z,93.26
2022-12-26T06:12:22.367Z,92.85
2022-12-26T06:13:22.318Z,92.96
2022-12-26T06:14:22.279Z,93.06
2022-12-26T06:15:22.251Z,92.55
2022-12-26T06:16:22.306Z,92.85
2022-12-26T06:17:22.161Z,93.06
2022-12-26T06:18:22.112Z,92.75
2022-12-26T06:19:22.072Z,92.96
2022-12-26T06:20:22.029Z,93.26
2022-12-26T06:21:22.019Z,92.96
2022-12-26T06:22:21.947Z,92.75
2022-12-26T06:23:21.919Z,92.65
2022-12-26T06:24:21.886Z,93.51
2022-12-26T06:25:21.840Z,92.65
2022-12-26T06:26:21.797Z,93.47
2022-12-26T06:27:21.744Z,93.37
2022-12-26T06:28:21.702Z,93.47
2022-12-26T06:29:21.682Z,93.26
2022-12-26T06:30:21.621Z,93.06
2022-12-26T06:31:21.795Z,93.57
2022-12-26T06:32:21.545Z,93.37
2022-12-26T06:33:21.499Z,93.16
2022-12-26T06:34:21.454Z,93.26
2022-12-26T06:35:21.430Z,93.06
2022-12-26T06:36:21.381Z,93.06
2022-12-26T06:37:21.339Z,93.57
2022-12-26T06:38:21.310Z,93.47
2022-12-26T06:39:21.252Z,93.57
2022-12-26T06:40:21.214Z,93.16
2022-12-26T06:41:21.179Z,93.26
2022-12-26T06:42:21.131Z,93.06
2022-12-26T06:43:21.088Z,93.37
2022-12-26T06:44:21.050Z,93.47
2022-12-26T06:45:21.007Z,93.37
2022-12-26T06:46:21.036Z,93.47
2022-12-26T06:47:20.936Z,93.26
2022-12-26T06:48:20.899Z,93.16
2022-12-26T06:49:20.868Z,93.16
2022-12-26T06:50:20.822Z,93.12
2022-12-26T06:51:20.762Z,93.57
2022-12-26T06:52:20.721Z,93.57
2022-12-26T06:53:20.680Z,93.16
2022-12-26T06:54:20.640Z,93.37
2022-12-26T06:55:20.611Z,93.16
2022-12-26T06:56:20.565Z,93.16
2022-12-26T06:57:20.524Z,93.26
2022-12-26T06:58:20.476Z,93.57
2022-12-26T06:59:20.445Z,93.47
2022-12-26T07:00:20.396Z,93.16
2022-12-26T07:01:20.519Z,93.01
2022-12-26T07:02:20.457Z,93.12
2022-12-26T07:03:20.275Z,93.84
2022-12-26T07:04:20.236Z,93.63
2022-12-26T07:05:20.188Z,93.22
2022-12-26T07:06:20.154Z,93.52
2022-12-26T07:07:20.147Z,93.32
2022-12-26T07:08:20.080Z,92.81
2022-12-26T07:09:20.042Z,92.77
2022-12-26T07:10:19.997Z,93.12
2022-12-26T07:11:19.967Z,93.01
2022-12-26T07:12:19.914Z,92.60
2022-12-26T07:13:19.869Z,92.40
2022-12-26T07:14:19.822Z,92.60
2022-12-26T07:15:19.788Z,92.56
2022-12-26T07:16:19.825Z,92.91
2022-12-26T07:17:19.697Z,92.66
2022-12-26T07:18:19.659Z,92.46
2022-12-26T07:19:19.626Z,91.78
2022-12-26T07:20:19.573Z,91.85
2022-12-26T07:21:19.541Z,92.25
2022-12-26T07:22:19.492Z,91.85
2022-12-26T07:23:19.447Z,92.25
2022-12-26T07:24:19.440Z,92.05
2022-12-26T07:25:19.360Z,91.95
2022-12-26T07:26:19.332Z,92.10
2022-12-26T07:27:19.286Z,91.89
2022-12-26T07:28:19.246Z,91.95
2022-12-26T07:29:19.205Z,91.74
2022-12-26T07:30:19.185Z,91.54
2022-12-26T07:31:19.214Z,91.27
2022-12-26T07:32:19.093Z,91.85
2022-12-26T07:33:19.038Z,91.78
2022-12-26T07:34:19.000Z,91.44
2022-12-26T07:35:18.959Z,92.15
2022-12-26T07:36:18.931Z,91.44
2022-12-26T07:37:18.883Z,91.44
2022-12-26T07:38:18.838Z,91.23
2022-12-26T07:39:18.805Z,91.03
2022-12-26T07:40:18.765Z,91.44
2022-12-26T07:41:18.711Z,91.64
2022-12-26T07:42:18.679Z,91.74
2022-12-26T07:43:18.636Z,91.23
2022-12-26T07:44:18.599Z,91.64
2022-12-26T07:45:18.583Z,91.44
2022-12-26T07:46:18.531Z,91.17
2022-12-26T07:47:18.465Z,91.54
2022-12-26T07:48:18.465Z,91.44
2022-12-26T07:49:18.386Z,91.54
2022-12-26T07:50:18.347Z,91.54
2022-12-26T07:51:18.327Z,91.44
2022-12-26T07:52:18.264Z,91.38
2022-12-26T07:53:18.507Z,91.17
2022-12-26T07:54:18.183Z,91.03
2022-12-26T07:55:18.142Z,91.13
2022-12-26T07:56:18.145Z,91.27
2022-12-26T07:58:18.030Z,91.07
2022-12-26T07:59:17.971Z,90.62
2022-12-26T08:00:17.931Z,91.03
2022-12-26T08:01:18.029Z,90.72
2022-12-26T08:02:18.038Z,90.86
2022-12-26T08:03:18.082Z,90.82
2022-12-26T08:04:17.770Z,90.77
2022-12-26T08:05:17.738Z,90.72
2022-12-26T08:06:17.728Z,90.92
2022-12-26T08:07:17.647Z,90.92
2022-12-26T08:08:17.623Z,90.62
2022-12-26T08:09:17.590Z,90.72
2022-12-26T08:10:17.535Z,90.52
2022-12-26T08:11:17.503Z,90.45
2022-12-26T08:12:17.453Z,90.52
2022-12-26T08:13:17.403Z,90.77
2022-12-26T08:14:17.393Z,90.52
2022-12-26T08:15:17.344Z,90.62
2022-12-26T08:16:17.359Z,90.82
2022-12-26T08:17:17.339Z,90.62
2022-12-26T08:18:17.211Z,90.41
2022-12-26T08:19:17.169Z,91.23
2022-12-26T08:20:17.124Z,90.52
2022-12-26T08:21:17.075Z,90.62
2022-12-26T08:22:17.039Z,90.62
2022-12-26T08:23:16.989Z,90.41
2022-12-26T08:24:16.956Z,90.82
2022-12-26T08:25:20.258Z,90.62
2022-12-26T08:26:16.866Z,90.92
2022-12-26T08:27:16.829Z,90.62
2022-12-26T08:28:16.787Z,91.03
2022-12-26T08:29:16.745Z,90.92
2022-12-26T08:30:16.721Z,89.90
2022-12-26T08:31:16.683Z,89.59
2022-12-26T08:32:16.662Z,89.90
2022-12-26T08:33:16.597Z,90.11
2022-12-26T08:34:16.546Z,90.92
2022-12-26T08:35:16.519Z,90.92
2022-12-26T08:36:16.463Z,90.41
2022-12-26T08:37:16.445Z,90.41
2022-12-26T08:38:16.380Z,90.31
2022-12-26T08:39:16.547Z,90.00
2022-12-26T08:40:26.770Z,89.84
2022-12-26T08:41:16.267Z,90.72
2022-12-26T08:42:16.218Z,90.72
2022-12-26T08:43:39.060Z,89.70
2022-12-26T08:44:26.820Z,89.59
2022-12-26T08:45:16.094Z,90.31
2022-12-26T08:46:16.110Z,90.21
2022-12-26T08:47:16.012Z,90.82
2022-12-26T08:48:15.977Z,90.78
2022-12-26T08:49:15.943Z,90.00
2022-12-26T08:50:15.889Z,90.82
2022-12-26T08:51:15.845Z,91.03
2022-12-26T08:52:15.804Z,89.59
2022-12-26T08:53:16.472Z,90.72
2022-12-26T08:54:15.728Z,90.62
2022-12-26T08:55:15.691Z,90.92
2022-12-26T08:56:15.653Z,90.52
2022-12-26T08:57:15.597Z,90.62
2022-12-26T08:58:15.618Z,90.21
2022-12-26T08:59:15.515Z,90.27
2022-12-26T09:00:15.490Z,90.92
2022-12-26T09:01:15.565Z,90.00
2022-12-26T09:02:15.546Z,90.11
2022-12-26T09:03:15.411Z,90.58
2022-12-26T09:04:15.314Z,90.11
2022-12-26T09:05:15.271Z,90.06
2022-12-26T09:06:15.238Z,90.72
2022-12-26T09:07:15.202Z,90.11
2022-12-26T09:08:15.162Z,91.23
2022-12-26T09:09:15.112Z,90.88
2022-12-26T09:10:15.073Z,90.31
2022-12-26T09:11:15.060Z,90.78
2022-12-26T09:12:14.989Z,90.37
2022-12-26T09:13:14.965Z,91.03
2022-12-26T09:14:14.908Z,90.82
2022-12-26T09:15:14.862Z,90.78
2022-12-26T09:16:14.823Z,90.88
2022-12-26T09:17:14.824Z,90.27
2022-12-26T09:18:14.741Z,90.88
2022-12-26T09:19:14.726Z,91.09
2022-12-26T09:20:14.671Z,90.88
2022-12-26T09:21:14.616Z,90.68
2022-12-26T09:22:14.586Z,90.78
2022-12-26T09:23:14.547Z,91.25
2022-12-26T09:24:14.520Z,90.58
2022-12-26T09:25:14.468Z,90.78
2022-12-26T09:26:14.417Z,91.09
2022-12-26T09:27:14.375Z,89.92
2022-12-26T09:28:16.983Z,90.94
2022-12-26T09:29:14.285Z,91.56
2022-12-26T09:30:14.270Z,90.78
2022-12-26T09:31:14.243Z,91.50
2022-12-26T09:32:14.180Z,91.35
2022-12-26T09:33:14.135Z,91.05
2022-12-26T09:34:14.093Z,91.46
2022-12-26T09:35:14.042Z,91.05
2022-12-26T09:36:15.162Z,91.76
2022-12-26T09:37:13.961Z,90.84
2022-12-26T09:38:13.932Z,90.84
2022-12-26T09:39:13.878Z,91.86
2022-12-26T09:40:13.841Z,90.94
2022-12-26T09:41:13.799Z,91.15
2022-12-26T09:42:13.771Z,91.05
2022-12-26T09:43:13.718Z,91.05
2022-12-26T09:44:13.819Z,90.88
2022-12-26T09:45:13.634Z,92.07
2022-12-26T09:46:13.658Z,91.15
2022-12-26T09:47:13.552Z,91.25
2022-12-26T09:48:13.521Z,90.64
2022-12-26T09:49:13.473Z,91.56
2022-12-26T09:50:13.455Z,90.94
2022-12-26T09:51:13.391Z,91.56
2022-12-26T09:52:13.358Z,90.94
2022-12-26T09:53:13.311Z,91.35
2022-12-26T09:54:13.271Z,90.53
2022-12-26T09:55:13.239Z,90.94
2022-12-26T09:56:23.705Z,90.84
2022-12-26T09:57:15.216Z,91.76
2022-12-26T09:58:13.108Z,90.64
2022-12-26T09:59:13.069Z,91.20
2022-12-26T10:00:13.025Z,91.76
2022-12-26T10:01:13.096Z,91.61
2022-12-26T10:02:13.029Z,91.92
2022-12-26T10:03:12.900Z,90.90
2022-12-26T10:04:12.890Z,91.52
2022-12-26T10:05:12.818Z,91.52
2022-12-26T10:06:12.785Z,91.52
2022-12-26T10:07:12.755Z,91.31
2022-12-26T10:08:12.700Z,91.31
2022-12-26T10:09:12.663Z,91.52
2022-12-26T10:10:12.637Z,91.61
2022-12-26T10:11:12.574Z,91.61
2022-12-26T10:12:12.545Z,91.20
2022-12-26T10:13:12.506Z,91.78
2022-12-26T10:14:17.903Z,91.11
2022-12-26T10:15:12.418Z,91.78
2022-12-26T10:16:12.402Z,91.88
2022-12-26T10:17:12.328Z,90.55
2022-12-26T10:18:12.305Z,91.27
2022-12-26T10:19:12.246Z,91.27
2022-12-26T10:20:12.211Z,91.06
2022-12-26T10:21:12.167Z,92.29
2022-12-26T10:22:12.130Z,91.47
2022-12-26T10:23:12.096Z,91.61
2022-12-26T10:24:12.052Z,90.96
2022-12-26T10:25:12.005Z,92.29
2022-12-26T10:26:11.967Z,91.67
2022-12-26T10:27:11.920Z,91.88
2022-12-26T10:28:12.339Z,91.88
2022-12-26T10:29:11.854Z,91.98
2022-12-26T10:30:11.807Z,91.27
2022-12-26T10:31:11.784Z,91.67
2022-12-26T10:32:11.758Z,91.98
2022-12-26T10:33:11.679Z,91.83
2022-12-26T10:34:11.675Z,91.43
2022-12-26T10:35:11.601Z,92.14
2022-12-26T10:36:11.571Z,91.74
2022-12-26T10:37:11.522Z,91.33
2022-12-26T10:38:11.488Z,91.57
2022-12-26T10:39:11.493Z,91.63
2022-12-26T10:40:11.408Z,91.27
2022-12-26T10:41:11.375Z,92.45
2022-12-26T10:42:11.318Z,91.78
2022-12-26T10:43:11.283Z,91.74
2022-12-26T10:44:11.246Z,91.63
2022-12-26T10:45:11.203Z,91.47
2022-12-26T10:46:11.199Z,91.43
2022-12-26T10:47:12.344Z,92.35
2022-12-26T10:48:11.079Z,91.63
2022-12-26T10:49:11.027Z,91.83
2022-12-26T10:50:11.011Z,91.37
2022-12-26T10:51:10.961Z,91.27
2022-12-26T10:52:10.923Z,91.33
2022-12-26T10:53:10.876Z,92.55
2022-12-26T10:54:10.830Z,91.98
2022-12-26T10:55:29.096Z,91.67
2022-12-26T10:56:14.792Z,92.04
2022-12-26T10:57:10.725Z,91.63
2022-12-26T10:58:10.670Z,91.74
2022-12-26T10:59:10.631Z,91.83
2022-12-26T11:00:10.591Z,91.74
2022-12-26T11:01:10.586Z,91.22
2022-12-26T11:02:10.613Z,92.14
2022-12-26T11:03:10.854Z,91.63
2022-12-26T11:04:10.426Z,91.88
2022-12-26T11:05:15.950Z,91.12
2022-12-26T11:06:10.430Z,91.53
2022-12-26T11:07:10.312Z,91.47
2022-12-26T11:08:10.274Z,91.63
2022-12-26T11:09:10.236Z,92.04
2022-12-26T11:10:10.181Z,91.43
2022-12-26T11:11:10.152Z,91.33
2022-12-26T11:12:10.102Z,91.83
2022-12-26T11:13:17.137Z,91.94
2022-12-26T11:14:10.034Z,91.74
2022-12-26T11:15:09.993Z,91.83
2022-12-26T11:16:09.965Z,91.83
2022-12-26T11:17:09.906Z,91.63
2022-12-26T11:18:09.876Z,91.94
2022-12-26T11:19:09.826Z,91.74
2022-12-26T11:20:09.781Z,91.28
2022-12-26T11:21:12.740Z,91.79
2022-12-26T11:22:09.704Z,91.79
2022-12-26T11:23:09.665Z,91.59
2022-12-26T11:24:09.651Z,91.39
2022-12-26T11:25:09.582Z,91.69
2022-12-26T11:26:09.537Z,92.35
2022-12-26T11:27:12.692Z,91.49
2022-12-26T11:28:09.455Z,91.74
2022-12-26T11:29:09.439Z,91.33
2022-12-26T11:30:09.374Z,91.69
2022-12-26T11:31:09.362Z,91.39
2022-12-26T11:32:09.294Z,91.59
2022-12-26T11:33:14.064Z,91.69
2022-12-26T11:34:09.238Z,91.59
2022-12-26T11:35:09.186Z,91.18
2022-12-26T11:36:09.148Z,91.43
2022-12-26T11:37:09.112Z,92.24
2022-12-26T11:38:09.049Z,91.74
2022-12-26T11:39:09.018Z,91.39
2022-12-26T11:40:08.976Z,91.22
2022-12-26T11:41:08.949Z,92.41
2022-12-26T11:42:08.889Z,91.69
2022-12-26T11:43:08.852Z,91.89
2022-12-26T11:44:08.813Z,91.79
2022-12-26T11:45:08.777Z,91.28
2022-12-26T11:46:08.736Z,91.83
2022-12-26T11:47:08.712Z,91.59
2022-12-26T11:48:08.648Z,92.00
2022-12-26T11:49:08.614Z,91.69
2022-12-26T11:50:08.571Z,92.00
2022-12-26T11:51:08.535Z,91.49
2022-12-26T11:52:08.486Z,91.79
2022-12-26T11:53:08.465Z,91.69
2022-12-26T11:54:08.407Z,91.69
2022-12-26T11:55:08.366Z,91.59
2022-12-26T11:56:08.329Z,91.89
2022-12-26T11:57:08.292Z,91.53
2022-12-26T11:58:08.246Z,91.69
2022-12-26T11:59:08.214Z,91.63
2022-12-26T12:00:08.164Z,90.81
2022-12-26T12:01:08.189Z,91.67
2022-12-26T12:02:08.149Z,90.96
2022-12-26T12:03:08.061Z,90.80
2022-12-26T12:04:08.002Z,90.64
2022-12-26T12:05:07.974Z,91.66
2022-12-26T12:06:07.931Z,90.74
2022-12-26T12:07:07.879Z,90.64
2022-12-26T12:08:07.841Z,90.88
2022-12-26T12:09:07.805Z,90.88
2022-12-26T12:10:07.769Z,90.37
2022-12-26T12:11:07.739Z,91.23
2022-12-26T12:12:07.681Z,90.21
2022-12-26T12:13:07.637Z,90.72
2022-12-26T12:14:07.596Z,90.21
2022-12-26T12:15:07.558Z,89.90
2022-12-26T12:16:07.568Z,90.41
2022-12-26T12:17:07.485Z,90.21
2022-12-26T12:18:07.429Z,90.11
2022-12-26T12:19:07.393Z,90.41
2022-12-26T12:20:07.374Z,90.58
2022-12-26T12:21:07.311Z,90.31
2022-12-26T12:22:07.278Z,89.65
2022-12-26T12:23:07.224Z,89.65
2022-12-26T12:24:07.181Z,90.68
2022-12-26T12:25:07.146Z,90.21
2022-12-26T12:26:07.106Z,89.97
2022-12-26T12:27:07.071Z,90.31
2022-12-26T12:28:07.033Z,89.80
2022-12-26T12:29:06.986Z,89.90
2022-12-26T12:30:06.945Z,90.62
2022-12-26T12:31:06.897Z,90.00
2022-12-26T12:32:07.154Z,90.00
2022-12-26T12:33:06.813Z,90.52
2022-12-26T12:34:06.781Z,89.86
2022-12-26T12:35:06.731Z,90.37
2022-12-26T12:36:06.688Z,89.97
2022-12-26T12:37:06.652Z,90.11
2022-12-26T12:38:06.606Z,90.21
2022-12-26T12:39:06.574Z,90.27
2022-12-26T12:40:06.542Z,90.17
2022-12-26T12:41:06.488Z,90.72
2022-12-26T12:42:06.455Z,90.47
2022-12-26T12:43:06.408Z,91.13
2022-12-26T12:44:06.375Z,90.17
2022-12-26T12:45:06.331Z,91.03
2022-12-26T12:46:06.338Z,90.47
2022-12-26T12:47:06.240Z,91.09
2022-12-26T12:48:06.248Z,90.21
2022-12-26T12:49:06.155Z,90.82
2022-12-26T12:50:06.125Z,90.78
2022-12-26T12:51:06.094Z,91.74
2022-12-26T12:52:06.036Z,89.90
2022-12-26T12:53:05.996Z,90.72